Home > Products > Valid Products > TAF

000
FTUS43 KLOT 282300
TAFRFD
TAF
KRFD 282320Z 2900/2924 36008KT P6SM BKN050
     FM290130 VRB03KT P6SM SCT080
     FM291530 32009KT P6SM SCT050=



000
FTUS43 KLOT 282300
TAFORD
TAF
KORD 282320Z 2900/3006 05007KT P6SM SCT050
     FM290230 VRB04KT P6SM SCT080
     FM291500 33008KT P6SM SCT050 PROB30 2922/3001 -SHRA BKN040
     FM300100 29005KT P6SM FEW050=



000
FTUS43 KLOT 282300
TAFGYY
TAF
KGYY 282320Z 2900/2924 36010G20KT P6SM FEW050
     FM290100 36008KT P6SM SKC
     FM290300 VRB04KT P6SM SCT080
     FM291900 03008KT P6SM FEW050=



000
FTUS43 KLOT 282300
TAFGYY
TAF
KGYY 282320Z 2900/2924 36010G20KT P6SM FEW050
     FM290100 36008KT P6SM SKC
     FM290300 VRB04KT P6SM SCT080
     FM291900 03008KT P6SM FEW050=



000
FTUS43 KLOT 282300
TAFMDW
TAF
KMDW 282320Z 2900/2924 05009KT P6SM SCT050
     FM290300 VRB04KT P6SM SCT080
     FM291500 33008KT P6SM SCT050=



000
FTUS43 KLOT 282300
TAFDPA
TAF
KDPA 282320Z 2900/2924 36008KT P6SM BKN050
     FM290130 VRB03KT P6SM SCT080
     FM291530 32008KT P6SM SCT050=



000
FTUS43 KLOT 282200 AAC
TAFORD
TAF AMD
KORD 282204Z 2822/2924 05009KT P6SM SCT050
     FM290230 VRB04KT P6SM SCT080
     FM291500 33008KT P6SM SCT050=



000
FTUS43 KLOT 282200 AAC
TAFDPA
TAF AMD
KDPA 282204Z 2822/2918 36008KT P6SM BKN050
     FM290130 VRB03KT P6SM SCT080
     FM291530 32008KT P6SM SCT050=



000
FTUS43 KLOT 282200 AAB
TAFMDW
TAF AMD
KMDW 282204Z 2822/2918 03012KT P6SM SCT050
     FM290300 VRB04KT P6SM SCT080
     FM291500 33008KT P6SM SCT050=



000
FTUS43 KLOT 282200 AAB
TAFRFD
TAF AMD
KRFD 282204Z 2822/2918 36008KT P6SM BKN050
     FM290130 VRB03KT P6SM SCT080
     FM291530 32009KT P6SM SCT050=



000
FTUS43 KLOT 282200 AAB
TAFGYY
TAF AMD
KGYY 282204Z 2822/2918 36012G20KT P6SM FEW050
     FM290100 36008KT P6SM SKC
     FM290300 VRB04KT P6SM SCT080=



000
FTUS43 KLOT 282200 AAB
TAFGYY
TAF AMD
KGYY 282204Z 2822/2918 36012G20KT P6SM FEW050
     FM290100 36008KT P6SM SKC
     FM290300 VRB04KT P6SM SCT080=



000
FTUS43 KLOT 282100 AAB
TAFDPA
TAF AMD
KDPA 282107Z 2821/2918 36010KT P6SM BKN050
     FM290100 VRB05KT P6SM FEW060 SCT120
     FM291600 32010KT P6SM FEW035=



000
FTUS43 KLOT 282100 AAB
TAFORD
TAF AMD
KORD 282105Z 2821/2924 03012KT P6SM SCT050
     FM290100 05008KT P6SM FEW050
     FM290500 31006KT P6SM FEW060 SCT120
     FM291500 33010KT P6SM SCT060=



000
FTUS43 KLOT 281900 AAA
TAFORD
TAF AMD
KORD 281944Z 2820/2924 01014G22KT P6SM SCT050
     FM282200 03011G17KT P6SM SCT050
     FM290100 05008KT P6SM FEW050
     FM290500 31006KT P6SM FEW060 SCT120
     FM291500 33010KT P6SM SCT060=



000
FTUS43 KLOT 281900 AAA
TAFRFD
TAF AMD
KRFD 281944Z 2820/2918 01014G22KT P6SM SCT050
     FM290000 30005KT P6SM SKC
     FM291600 32010KT P6SM FEW035=



000
FTUS43 KLOT 281900 AAA
TAFGYY
TAF AMD
KGYY 281944Z 2820/2918 36017G27KT P6SM FEW030
     FM290000 36010G16KT P6SM SKC
     FM290300 32006KT P6SM FEW060 SCT120=



000
FTUS43 KLOT 281900 AAA
TAFGYY
TAF AMD
KGYY 281944Z 2820/2918 36017G27KT P6SM FEW030
     FM290000 36010G16KT P6SM SKC
     FM290300 32006KT P6SM FEW060 SCT120=



000
FTUS43 KLOT 281900 AAA
TAFMDW
TAF AMD
KMDW 281944Z 2820/2918 01015G25KT P6SM SCT050
     FM282300 02011G17KT P6SM SCT050
     FM290100 05008KT P6SM FEW050
     FM290500 31006KT P6SM FEW060 SCT120
     FM291500 33010KT P6SM FEW035=



000
FTUS43 KLOT 281900 AAA
TAFDPA
TAF AMD
KDPA 281944Z 2820/2918 36014G20KT P6SM SCT050
     FM282300 01010KT P6SM FEW050
     FM290100 VRB05KT P6SM FEW060 SCT120
     FM291600 32010KT P6SM FEW035=



000
FTUS43 KLOT 281700
TAFGYY
TAF
KGYY 281740Z 2818/2918 34018G28KT P6SM SCT024
     FM282000 36015G25KT P6SM FEW030
     FM290000 36010G16KT P6SM SKC
     FM290300 32006KT P6SM FEW060 SCT120=



000
FTUS43 KLOT 281700
TAFDPA
TAF
KDPA 281740Z 2818/2918 01014G20KT P6SM SCT050
     FM290100 VRB05KT P6SM FEW060 SCT120
     FM291600 32010KT P6SM FEW035=



000
FTUS43 KLOT 281700
TAFRFD
TAF
KRFD 281740Z 2818/2918 36014G22KT P6SM SCT050
     FM290000 30005KT P6SM SKC
     FM291600 32010KT P6SM FEW035=



000
FTUS43 KLOT 281700
TAFMDW
TAF
KMDW 281740Z 2818/2918 01015G23KT P6SM SCT050
     FM282300 01010G15KT P6SM SKC
     FM290200 31006KT P6SM FEW060 SCT120
     FM291500 33010KT P6SM FEW035=



000
FTUS43 KLOT 281700
TAFORD
TAF
KORD 281740Z 2818/2924 01015G23KT P6SM SCT050
     FM282300 01010G15KT P6SM SKC
     FM290200 31006KT P6SM FEW060 SCT120
     FM291500 33010KT P6SM SCT060=



000
FTUS43 KLOT 281700
TAFGYY
TAF
KGYY 281740Z 2818/2918 34018G28KT P6SM SCT024
     FM282000 36015G25KT P6SM FEW030
     FM290000 36010G16KT P6SM SKC
     FM290300 32006KT P6SM FEW060 SCT120=



000
FTUS43 KLOT 281600 AAB
TAFDPA
TAF AMD
KDPA 281600Z 2816/2912 36014G20KT P6SM SCT050
     FM290000 31006KT P6SM FEW060=



000
FTUS43 KLOT 281600 AAB
TAFRFD
TAF AMD
KRFD 281600Z 2816/2912 36014G21KT P6SM SCT050
     FM290000 30005KT P6SM SKC=



000
FTUS43 KLOT 281600 AAC
TAFGYY
TAF AMD
KGYY 281600Z 2816/2912 34016G25KT P6SM SCT022
      TEMPO 2816/2817 BKN022
     FM281800 36015G24KT P6SM FEW030
     FM290000 36010G16KT P6SM SKC
     FM290300 32006KT P6SM FEW060=



000
FTUS43 KLOT 281600 AAC
TAFGYY
TAF AMD
KGYY 281600Z 2816/2912 34016G25KT P6SM SCT022
      TEMPO 2816/2817 BKN022
     FM281800 36015G24KT P6SM FEW030
     FM290000 36010G16KT P6SM SKC
     FM290300 32006KT P6SM FEW060=



000
FTUS43 KLOT 281600 AAB
TAFMDW
TAF AMD
KMDW 281600Z 2816/2912 36014G21KT P6SM FEW030
     FM281700 02014G21KT P6SM SCT050
     FM282300 03010G15KT P6SM SKC
     FM290200 31006KT P6SM FEW060=



000
FTUS43 KLOT 281600 AAB
TAFORD
TAF AMD
KORD 281600Z 2816/2918 36014G20KT P6SM FEW030
     FM281700 02014G21KT P6SM SCT050
     FM282300 02010G15KT P6SM SKC
     FM290200 31006KT P6SM FEW060
     FM291500 33010KT P6SM SCT060=



000
FTUS43 KLOT 281300 AAA
TAFRFD
TAF AMD
KRFD 281340Z 2814/2912 36014G21KT P6SM SCT050
     FM290000 30005KT P6SM SKC=



000
FTUS43 KLOT 281300 AAB
TAFGYY
TAF AMD
KGYY 281340Z 2814/2912 34016G25KT P6SM SCT022
      TEMPO 2814/2815 BKN022
     FM281600 36015G24KT P6SM FEW030
     FM290000 36010G16KT P6SM SKC
     FM290300 32006KT P6SM FEW060=



000
FTUS43 KLOT 281300 AAA
TAFMDW
TAF AMD
KMDW 281340Z 2814/2912 36014G21KT P6SM FEW030
     FM281500 02014G21KT P6SM SCT050
     FM282300 03010G15KT P6SM SKC
     FM290200 31006KT P6SM FEW060=



000
FTUS43 KLOT 281300 AAA
TAFDPA
TAF AMD
KDPA 281340Z 2814/2912 36014G20KT P6SM SCT050
     FM290000 31006KT P6SM FEW060=



000
FTUS43 KLOT 281300 AAA
TAFORD
TAF AMD
KORD 281340Z 2814/2918 36014G20KT P6SM FEW030
     FM281500 02014G21KT P6SM SCT050
     FM282300 02010G15KT P6SM SKC
     FM290200 31006KT P6SM FEW060
     FM291500 33010KT P6SM SCT060=



000
FTUS43 KLOT 281300 AAB
TAFGYY
TAF AMD
KGYY 281340Z 2814/2912 34016G25KT P6SM SCT022
      TEMPO 2814/2815 BKN022
     FM281600 36015G24KT P6SM FEW030
     FM290000 36010G16KT P6SM SKC
     FM290300 32006KT P6SM FEW060=



000
FTUS43 KLOT 281100 AAA
TAFGYY
TAF AMD
KGYY 281154Z 2812/2912 35016G25KT P6SM SCT018
      TEMPO 2812/2814 BKN018
     FM281600 36015G24KT P6SM FEW030
     FM290000 36010G16KT P6SM SKC
     FM290300 32006KT P6SM FEW060=



000
FTUS43 KLOT 281100 AAA
TAFGYY
TAF AMD
KGYY 281154Z 2812/2912 35016G25KT P6SM SCT018
      TEMPO 2812/2814 BKN018
     FM281600 36015G24KT P6SM FEW030
     FM290000 36010G16KT P6SM SKC
     FM290300 32006KT P6SM FEW060=



000
FTUS43 KLOT 281100
TAFGYY
TAF
KGYY 281134Z 2812/2912 35016G25KT P6SM SCT010
     FM281600 36015G24KT P6SM FEW030
     FM290000 36010G16KT P6SM SKC
     FM290300 32006KT P6SM FEW060=



000
FTUS43 KLOT 281100
TAFRFD
TAF
KRFD 281134Z 2812/2912 36010KT P6SM SKC
     FM281500 36012G18KT P6SM SCT050
     FM290000 30005KT P6SM SKC=



000
FTUS43 KLOT 281100
TAFGYY
TAF
KGYY 281134Z 2812/2912 35016G25KT P6SM SCT010
     FM281600 36015G24KT P6SM FEW030
     FM290000 36010G16KT P6SM SKC
     FM290300 32006KT P6SM FEW060=



000
FTUS43 KLOT 281100
TAFDPA
TAF
KDPA 281134Z 2812/2912 35011KT P6SM SKC
     FM281500 36012G20KT P6SM SCT050
     FM290000 31006KT P6SM FEW060=



000
FTUS43 KLOT 281100
TAFMDW
TAF
KMDW 281134Z 2812/2912 35012KT P6SM FEW030
     FM281500 02014G21KT P6SM SCT050
     FM282300 03010G15KT P6SM SKC
     FM290200 31006KT P6SM FEW060=



000
FTUS43 KLOT 281100
TAFORD
TAF
KORD 281134Z 2812/2918 35012KT P6SM FEW030
     FM281500 02014G21KT P6SM SCT050
     FM282300 02010G15KT P6SM SKC
     FM290200 31006KT P6SM FEW060
     FM291500 33010KT P6SM SCT060=



000
FTUS43 KLOT 280800 AAA
TAFGYY
TAF AMD
KGYY 280831Z 2809/2906 36015G24KT P6SM BKN035
     FM281000 36013G20KT P6SM FEW030
     FM281500 36015G25KT P6SM FEW050
     FM290000 01010G16KT P6SM FEW050
     FM290300 32006KT P6SM FEW050=



000
FTUS43 KLOT 280800 AAA
TAFDPA
TAF AMD
KDPA 280831Z 2809/2906 35010KT P6SM SKC
     FM281500 36012G20KT P6SM SCT050
     FM290000 31006KT P6SM FEW050=



000
FTUS43 KLOT 280800 AAA
TAFGYY
TAF AMD
KGYY 280831Z 2809/2906 36015G24KT P6SM BKN035
     FM281000 36013G20KT P6SM FEW030
     FM281500 36015G25KT P6SM FEW050
     FM290000 01010G16KT P6SM FEW050
     FM290300 32006KT P6SM FEW050=



000
FTUS43 KLOT 280800 AAA
TAFORD
TAF AMD
KORD 280831Z 2809/2912 35012KT P6SM FEW030
     FM281500 02012G20KT P6SM SCT050
     FM290000 01010KT P6SM FEW050
     FM290200 31006KT P6SM FEW050=



000
FTUS43 KLOT 280800 AAA
TAFRFD
TAF AMD
KRFD 280831Z 2809/2906 36010KT P6SM SKC
     FM281500 36012G18KT P6SM SCT050
     FM290000 30006KT P6SM FEW050=



000
FTUS43 KLOT 280800 AAA
TAFMDW
TAF AMD
KMDW 280831Z 2809/2906 35012KT P6SM FEW030
     FM281500 02012G20KT P6SM SCT050
     FM290000 01010KT P6SM FEW050
     FM290200 31006KT P6SM FEW050=



000
FTUS43 KLOT 280500
TAFDPA
TAF
KDPA 280534Z 2806/2906 01011KT P6SM SCT025 BKN035
      TEMPO 2806/2807 BKN025
     FM280900 35010KT P6SM FEW030
     FM281500 36012G20KT P6SM SCT050
     FM290000 31006KT P6SM FEW050=



000
FTUS43 KLOT 280500
TAFGYY
TAF
KGYY 280534Z 2806/2906 36015G24KT P6SM BKN023
     FM281100 36012G18KT P6SM FEW030
     FM281500 36015G25KT P6SM FEW050
     FM290000 01010G16KT P6SM FEW050
     FM290300 32006KT P6SM FEW050=



000
FTUS43 KLOT 280500
TAFRFD
TAF
KRFD 280534Z 2806/2906 36010G16KT P6SM SCT025 SCT035
     FM280800 36010KT P6SM SKC
     FM281500 36012G18KT P6SM SCT050
     FM290000 30006KT P6SM FEW050=



000
FTUS43 KLOT 280500
TAFORD
TAF
KORD 280534Z 2806/2912 36012G18KT P6SM SCT025 BKN035
     FM280900 35012KT P6SM FEW030
     FM281500 02012G20KT P6SM SCT050
     FM290000 01010KT P6SM FEW050
     FM290200 31006KT P6SM FEW050=



000
FTUS43 KLOT 280500
TAFMDW
TAF
KMDW 280534Z 2806/2906 36012G19KT P6SM SCT025 BKN035
      TEMPO 2806/2807 BKN025
     FM281000 35012KT P6SM FEW030
     FM281500 02012G20KT P6SM SCT050
     FM290000 01010KT P6SM FEW050
     FM290200 31006KT P6SM FEW050=



000
FTUS43 KLOT 280500
TAFGYY
TAF
KGYY 280534Z 2806/2906 36015G24KT P6SM BKN023
     FM281100 36012G18KT P6SM FEW030
     FM281500 36015G25KT P6SM FEW050
     FM290000 01010G16KT P6SM FEW050
     FM290300 32006KT P6SM FEW050=



000
FTUS43 KLOT 280300 AAA
TAFRFD
TAF AMD
KRFD 280305Z 2803/2824 34010KT P6SM SKC
      TEMPO 2803/2805 BKN030 BKN050
     FM281500 36012G18KT P6SM SCT050=



000
FTUS43 KLOT 280300 AAA
TAFMDW
TAF AMD
KMDW 280305Z 2803/2824 35012KT P6SM SCT025 BKN035
      TEMPO 2803/2805 02012G18KT BKN023
     FM281500 02012G20KT P6SM SCT050=



000
FTUS43 KLOT 280300 AAA
TAFGYY
TAF AMD
KGYY 280305Z 2803/2824 35012KT P6SM SCT025 BKN035
     FM280400 01012KT P6SM BKN023
     FM281500 36015G25KT P6SM SCT050=



000
FTUS43 KLOT 280300 AAA
TAFGYY
TAF AMD
KGYY 280305Z 2803/2824 35012KT P6SM SCT025 BKN035
     FM280400 01012KT P6SM BKN023
     FM281500 36015G25KT P6SM SCT050=



000
FTUS43 KLOT 280300 AAB
TAFORD
TAF AMD
KORD 280305Z 2803/2906 35012KT P6SM SCT025 BKN035
      TEMPO 2803/2805 02012G18KT BKN023
     FM281500 02012G20KT P6SM SCT050
     FM290200 VRB05KT P6SM SCT050=



000
FTUS43 KLOT 280300 AAA
TAFDPA
TAF AMD
KDPA 280305Z 2803/2824 35010KT P6SM SCT025 BKN035
     FM281500 36012G20KT P6SM SCT050=



000
FTUS43 KLOT 280200 AAA
TAFORD
TAF AMD
KORD 280216Z 2802/2906 32012G18KT P6SM SCT040 BKN080
     FM280300 35012KT P6SM SCT025 BKN035
      TEMPO 2803/2804 02010G15KT BKN025
     FM281500 02012G20KT P6SM SCT050
     FM290200 VRB05KT P6SM SCT050=



000
FTUS43 KLOT 272300
TAFGYY
TAF
KGYY 272320Z 2800/2824 30020G30KT P6SM SCT040 BKN080
     FM280100 30012G20KT P6SM SCT040 BKN080
     FM280300 35012KT P6SM SCT025 BKN035
     FM281500 36015G25KT P6SM SCT050=



000
FTUS43 KLOT 272300
TAFRFD
TAF
KRFD 272320Z 2800/2824 31014G22KT P6SM VCSH SCT040 BKN080
     FM280130 34010KT P6SM SCT025 BKN040
     FM281500 36012G18KT P6SM SCT050=



000
FTUS43 KLOT 272300
TAFMDW
TAF
KMDW 272320Z 2800/2824 30018G28KT P6SM SCT040 BKN080
     FM280100 32012G18KT P6SM SCT040 BKN080
     FM280300 35012KT P6SM SCT025 BKN035
     FM281500 02012G20KT P6SM SCT050=



000
FTUS43 KLOT 272300
TAFGYY
TAF
KGYY 272320Z 2800/2824 30020G30KT P6SM SCT040 BKN080
     FM280100 30012G20KT P6SM SCT040 BKN080
     FM280300 35012KT P6SM SCT025 BKN035
     FM281500 36015G25KT P6SM SCT050=



000
FTUS43 KLOT 272300
TAFDPA
TAF
KDPA 272320Z 2800/2824 30018G28KT P6SM VCSH SCT040 BKN080
     FM280100 34010KT P6SM SCT025 BKN035
     FM281500 36012G20KT P6SM SCT050=



000
FTUS43 KLOT 272300
TAFORD
TAF
KORD 272320Z 2800/2906 30018G28KT P6SM VCSH SCT040 BKN080
     FM280100 32012G18KT P6SM SCT040 BKN080
     FM280300 35012KT P6SM SCT025 BKN035
     FM281500 02012G20KT P6SM SCT050
     FM290200 VRB05KT P6SM SCT050=



000
FTUS43 KLOT 272200 AAB
TAFRFD
TAF AMD
KRFD 272200Z 2722/2818 31014G22KT P6SM VCSH SCT040 BKN080
     FM280130 34010KT P6SM SCT025 BKN040
     FM281500 36012G18KT P6SM SCT050=



000
FTUS43 KLOT 272200 AAB
TAFMDW
TAF AMD
KMDW 272200Z 2722/2818 30018G28KT P6SM SCT040 BKN080
     FM280100 32012G18KT P6SM SCT040 BKN080
     FM280300 35012KT P6SM SCT025 BKN035
     FM281500 02012G20KT P6SM SCT050=



000
FTUS43 KLOT 272200 AAB
TAFGYY
TAF AMD
KGYY 272200Z 2722/2818 30020G30KT P6SM SCT040 BKN080
     FM280100 30012G20KT P6SM SCT040 BKN080
     FM280300 35012KT P6SM SCT025 BKN035
     FM281500 36015G25KT P6SM SCT050=



000
FTUS43 KLOT 272200 AAB
TAFGYY
TAF AMD
KGYY 272200Z 2722/2818 30020G30KT P6SM SCT040 BKN080
     FM280100 30012G20KT P6SM SCT040 BKN080
     FM280300 35012KT P6SM SCT025 BKN035
     FM281500 36015G25KT P6SM SCT050=



000
FTUS43 KLOT 272200 AAB
TAFORD
TAF AMD
KORD 272200Z 2722/2824 30018G28KT P6SM VCSH SCT040 BKN080
     FM280100 32012G18KT P6SM SCT040 BKN080
     FM280300 35012KT P6SM SCT025 BKN035
     FM281500 02012G20KT P6SM SCT050=



000
FTUS43 KLOT 272200 AAB
TAFDPA
TAF AMD
KDPA 272200Z 2722/2818 30018G28KT P6SM VCSH SCT040 BKN080
     FM280100 34010KT P6SM SCT025 BKN035
     FM281500 36012G20KT P6SM SCT050=



000
FTUS43 KLOT 271900 AAA
TAFDPA
TAF AMD
KDPA 271954Z 2720/2818 30018G28KT P6SM VCSH BKN040
     FM280100 33014G20KT P6SM SCT025 BKN035
     FM280300 36012G18KT P6SM BKN020
     FM280800 33011KT P6SM SCT060
     FM281300 35013G19KT P6SM SCT040=



000
FTUS43 KLOT 271900 AAA
TAFGYY
TAF AMD
KGYY 271954Z 2720/2818 30018G28KT P6SM VCSH BKN040
     FM280100 31014G20KT P6SM SCT025 BKN035
     FM280300 01012G18KT P6SM BKN015
     FM280800 34012KT P6SM SCT060
     FM281300 01015G22KT P6SM SCT040=



000
FTUS43 KLOT 271900 AAA
TAFORD
TAF AMD
KORD 271954Z 2720/2824 30018G28KT P6SM VCSH BKN040
     FM280100 33014G20KT P6SM SCT025 BKN035
     FM280300 01012G18KT P6SM BKN020
     FM280800 34012KT P6SM SCT060
     FM281300 02013G20KT P6SM SCT040=



000
FTUS43 KLOT 271900 AAA
TAFGYY
TAF AMD
KGYY 271954Z 2720/2818 30018G28KT P6SM VCSH BKN040
     FM280100 31014G20KT P6SM SCT025 BKN035
     FM280300 01012G18KT P6SM BKN015
     FM280800 34012KT P6SM SCT060
     FM281300 01015G22KT P6SM SCT040=



000
FTUS43 KLOT 271900 AAA
TAFMDW
TAF AMD
KMDW 271954Z 2720/2818 30018G28KT P6SM VCSH BKN040
     FM280100 33014G20KT P6SM SCT025 BKN035
     FM280300 01012G18KT P6SM BKN020
     FM280800 34012KT P6SM SCT060
     FM281300 02013G20KT P6SM SCT040=



000
FTUS43 KLOT 271900 AAA
TAFRFD
TAF AMD
KRFD 271954Z 2720/2818 30019G28KT P6SM VCSH BKN040
     FM280000 33014G20KT P6SM SCT025 BKN035
     FM280400 36012G18KT P6SM BKN020
     FM280800 34009KT P6SM SCT060
     FM281300 35013G19KT P6SM SCT040=



000
FTUS43 KLOT 271700
TAFMDW
TAF
KMDW 271730Z 2718/2818 29017G25KT P6SM SCT045
     FM272000 31018G27KT P6SM VCSH BKN035
     FM280100 33014G20KT P6SM SCT025 BKN035
     FM280300 01012G18KT P6SM BKN020
     FM280800 34012KT P6SM SCT060
     FM281300 02013G20KT P6SM SCT040=



000
FTUS43 KLOT 271700
TAFGYY
TAF
KGYY 271730Z 2718/2818 27013G19KT P6SM VCTS BKN045CB
     FM271900 28017G25KT P6SM SCT045
     FM272100 30018G27KT P6SM VCSH BKN035
     FM280100 31014G20KT P6SM SCT025 BKN035
     FM280300 01012G18KT P6SM BKN015
     FM280800 34012KT P6SM SCT060
     FM281300 01015G22KT P6SM SCT040=



000
FTUS43 KLOT 271700
TAFORD
TAF
KORD 271730Z 2718/2824 29017G25KT P6SM SCT045
     FM272000 31018G27KT P6SM VCSH BKN035
     FM280100 33014G20KT P6SM SCT025 BKN035
     FM280300 01012G18KT P6SM BKN020
     FM280800 34012KT P6SM SCT060
     FM281300 02013G20KT P6SM SCT040=



000
FTUS43 KLOT 271700
TAFRFD
TAF
KRFD 271730Z 2718/2818 31019G28KT P6SM VCSH BKN040
     FM280000 33014G20KT P6SM SCT025 BKN035
     FM280400 36012G18KT P6SM BKN020
     FM280800 34009KT P6SM SCT060
     FM281300 35013G19KT P6SM SCT040=



000
FTUS43 KLOT 271700
TAFDPA
TAF
KDPA 271730Z 2718/2818 29017G25KT P6SM SCT045
     FM272000 31018G27KT P6SM VCSH BKN035
     FM280100 33014G20KT P6SM SCT025 BKN035
     FM280300 36012G18KT P6SM BKN020
     FM280800 33011KT P6SM SCT060
     FM281300 35013G19KT P6SM SCT040=



000
FTUS43 KLOT 271700
TAFGYY
TAF
KGYY 271730Z 2718/2818 27013G19KT P6SM VCTS BKN045CB
     FM271900 28017G25KT P6SM SCT045
     FM272100 30018G27KT P6SM VCSH BKN035
     FM280100 31014G20KT P6SM SCT025 BKN035
     FM280300 01012G18KT P6SM BKN015
     FM280800 34012KT P6SM SCT060
     FM281300 01015G22KT P6SM SCT040=



000
FTUS43 KLOT 271600 AAB
TAFGYY
TAF AMD
KGYY 271600Z 2716/2812 28011G17KT P6SM VCTS BKN035CB
      TEMPO 2717/2719 4SM TSRA BKN025CB
     FM271900 30015G26KT P6SM VCSH BKN040
     FM280200 33012G18KT P6SM BKN030
     FM280800 34012KT P6SM SCT035=



000
FTUS43 KLOT 271600 AAB
TAFRFD
TAF AMD
KRFD 271600Z 2716/2812 29015G22KT P6SM SCT040
     FM271700 31018G28KT P6SM BKN040
     FM280100 33011KT P6SM BKN030
     FM280700 34009KT P6SM SCT035=



000
FTUS43 KLOT 271600 AAB
TAFGYY
TAF AMD
KGYY 271600Z 2716/2812 28011G17KT P6SM VCTS BKN035CB
      TEMPO 2717/2719 4SM TSRA BKN025CB
     FM271900 30015G26KT P6SM VCSH BKN040
     FM280200 33012G18KT P6SM BKN030
     FM280800 34012KT P6SM SCT035=



000
FTUS43 KLOT 271600 AAC
TAFORD
TAF AMD
KORD 271600Z 2716/2818 29012G18KT P6SM VCTS BKN035CB
      TEMPO 2717/2718 4SM TSRA BKN025CB
     FM271800 30015G26KT P6SM VCSH BKN040
     FM280100 33012G18KT P6SM BKN030
     FM280800 34011KT P6SM SCT035
     FM281300 02013G20KT P6SM FEW040=



000
FTUS43 KLOT 271600 AAD
TAFDPA
TAF AMD
KDPA 271600Z 2716/2812 28012G18KT P6SM VCTS SCT035CB
     FM271700 29016G26KT P6SM VCSH BKN040
     FM280100 33012G18KT P6SM BKN030
     FM280800 34011KT P6SM SCT035=



000
FTUS43 KLOT 271600 AAB
TAFMDW
TAF AMD
KMDW 271600Z 2716/2812 28012G18KT P6SM VCTS BKN035CB
      TEMPO 2717/2718 4SM TSRA BKN025CB
     FM271800 30015G26KT P6SM VCSH BKN040
     FM280100 33012G18KT P6SM BKN030
     FM280800 34011KT P6SM SCT035=



000
FTUS43 KLOT 271400 AAC
TAFDPA
TAF AMD
KDPA 271400Z 2714/2812 28011KT P6SM FEW003 SCT100
     FM271600 29012G18KT 6SM SHRA VCTS BKN035CB
      TEMPO 2716/2718 4SM TSRA BKN025CB
     FM271830 30015G26KT P6SM VCSH BKN040
     FM280100 33012G18KT P6SM BKN030
     FM280800 34011KT P6SM SCT035=



000
FTUS43 KLOT 271400 AAA
TAFMDW
TAF AMD
KMDW 271400Z 2714/2812 27010KT P6SM FEW035 SCT100
     FM271630 29011G18KT 6SM SHRA VCTS BKN035CB
      TEMPO 2717/2719 4SM TSRA BKN025CB
     FM271900 30015G26KT P6SM VCSH BKN040
     FM280100 33012G18KT P6SM BKN030
     FM280800 34011KT P6SM SCT035=



000
FTUS43 KLOT 271400 AAB
TAFORD
TAF AMD
KORD 271400Z 2714/2818 27010KT P6SM FEW035 SCT100
     FM271600 29011G18KT 6SM SHRA VCTS BKN035CB
      TEMPO 2716/2718 4SM TSRA BKN025CB
     FM271900 30015G26KT P6SM VCSH BKN040
     FM280100 33012G18KT P6SM BKN030
     FM280800 34011KT P6SM SCT035
     FM281300 02013G20KT P6SM FEW040=



000
FTUS43 KLOT 271400 AAA
TAFGYY
TAF AMD
KGYY 271400Z 2714/2812 27010KT P6SM SCT015
     FM271700 28011G18KT 6SM SHRA VCTS BKN035CB
      TEMPO 2717/2719 4SM TSRA BKN025CB
     FM271900 30015G26KT P6SM VCSH BKN040
     FM280200 33012G18KT P6SM BKN030
     FM280800 34012KT P6SM SCT035=



000
FTUS43 KLOT 271400 AAA
TAFRFD
TAF AMD
KRFD 271400Z 2714/2812 28011KT P6SM FEW040 SCT100
     FM271500 29012G19KT P6SM VCTS SCT040CB BKN100
     FM271700 31018G28KT P6SM BKN040
     FM280100 33011KT P6SM BKN030
     FM280700 34009KT P6SM SCT035=



000
FTUS43 KLOT 271400 AAA
TAFGYY
TAF AMD
KGYY 271400Z 2714/2812 27010KT P6SM SCT015
     FM271700 28011G18KT 6SM SHRA VCTS BKN035CB
      TEMPO 2717/2719 4SM TSRA BKN025CB
     FM271900 30015G26KT P6SM VCSH BKN040
     FM280200 33012G18KT P6SM BKN030
     FM280800 34012KT P6SM SCT035=



000
FTUS43 KLOT 271300 AAB
TAFDPA
TAF AMD
KDPA 271317Z 2713/2812 25006KT 4SM BR SCT005
     FM271430 27010KT P6SM SCT008 SCT100
     FM271600 29011G18KT 6SM SHRA VCTS BKN035CB
      TEMPO 2716/2718 4SM TSRA BKN025CB
     FM271830 30015G26KT P6SM VCSH BKN040
     FM280100 33012G18KT P6SM BKN030
     FM280800 34011KT P6SM SCT035=



000
FTUS43 KLOT 271300 AAA
TAFORD
TAF AMD
KORD 271314Z 2713/2818 25006KT 5SM BR SCT005
     FM271400 27010KT P6SM SCT010 SCT100
     FM271600 29011G18KT 6SM SHRA VCTS BKN035CB
      TEMPO 2716/2718 4SM TSRA BKN025CB
     FM271900 30015G26KT P6SM VCSH BKN040
     FM280100 33012G18KT P6SM BKN030
     FM280800 34011KT P6SM SCT035
     FM281300 02013G20KT P6SM FEW040=



000
FTUS43 KLOT 271100 AAA
TAFDPA
TAF AMD
KDPA 271140Z 2712/2812 24005KT 1 1/2SM BR BKN002
     FM271330 25007KT 4SM BR BKN004
     FM271430 27010KT P6SM SCT008 SCT100
     FM271600 29011G18KT 6SM SHRA VCTS BKN035CB
      TEMPO 2716/2718 4SM TSRA BKN025CB
     FM271830 30015G26KT P6SM VCSH BKN040
     FM280100 33012G18KT P6SM BKN030
     FM280800 34011KT P6SM SCT035=



000
FTUS43 KLOT 271100
TAFGYY
TAF
KGYY 271125Z 2712/2812 25005KT 3SM BR BKN015
      TEMPO 2712/2713 1SM BR BKN005
     FM271400 27010KT P6SM SCT010 SCT100
     FM271700 28011G18KT 6SM SHRA VCTS BKN035CB
      TEMPO 2717/2719 4SM TSRA BKN025CB
     FM271900 30015G26KT P6SM VCSH BKN040
     FM280200 33012G18KT P6SM BKN030
     FM280800 34012KT P6SM SCT035=



000
FTUS43 KLOT 271100
TAFGYY
TAF
KGYY 271125Z 2712/2812 25005KT 3SM BR BKN015
      TEMPO 2712/2713 1SM BR BKN005
     FM271400 27010KT P6SM SCT010 SCT100
     FM271700 28011G18KT 6SM SHRA VCTS BKN035CB
      TEMPO 2717/2719 4SM TSRA BKN025CB
     FM271900 30015G26KT P6SM VCSH BKN040
     FM280200 33012G18KT P6SM BKN030
     FM280800 34012KT P6SM SCT035=



000
FTUS43 KLOT 271100
TAFMDW
TAF
KMDW 271125Z 2712/2812 25005KT 4SM BR SCT005
     FM271330 27010KT P6SM SCT010 SCT100
     FM271630 29011G18KT 6SM SHRA VCTS BKN035CB
      TEMPO 2717/2719 4SM TSRA BKN025CB
     FM271900 30015G26KT P6SM VCSH BKN040
     FM280100 33012G18KT P6SM BKN030
     FM280800 34011KT P6SM SCT035=



000
FTUS43 KLOT 271100
TAFRFD
TAF
KRFD 271125Z 2712/2812 24003KT 1 1/2SM BR BKN002
     FM271300 26007KT 6SM BR SCT002 BKN100
     FM271500 29012G19KT P6SM VCTS SCT040CB BKN100
     FM271700 31018G28KT P6SM BKN040
     FM280100 33011KT P6SM BKN030
     FM280700 34009KT P6SM SCT035=



000
FTUS43 KLOT 271100
TAFORD
TAF
KORD 271125Z 2712/2818 25005KT 4SM BR BKN005
     FM271400 27010KT P6SM SCT010 SCT100
     FM271600 29011G18KT 6SM SHRA VCTS BKN035CB
      TEMPO 2716/2718 4SM TSRA BKN025CB
     FM271900 30015G26KT P6SM VCSH BKN040
     FM280100 33012G18KT P6SM BKN030
     FM280800 34011KT P6SM SCT035
     FM281300 02013G20KT P6SM FEW040=



000
FTUS43 KLOT 271100
TAFDPA
TAF
KDPA 271125Z 2712/2812 24005KT 1 1/2SM BR BKN002
     FM271330 25007KT 4SM BR BKN004
     FM271430 27010KT P6SM SCT008 SCT100
     FM271600 29011G18KT 6SM SHRA VCTS BKN035CB
     FM271830 30015G26KT P6SM VCSH BKN040
     FM280100 33012G18KT P6SM BKN030
     FM280800 34011KT P6SM SCT035=



000
FTUS43 KLOT 271000 AAB
TAFRFD
TAF AMD
KRFD 271032Z 2711/2806 24003KT 1 1/2SM BR BCFG VV004
     FM271300 29009KT P6SM SCT070
     FM271500 30012G19KT P6SM SCT040
     FM271700 31018G28KT P6SM BKN040
     FM280100 33011KT P6SM BKN040=



000
FTUS43 KLOT 270900 AAA
TAFGYY
TAF AMD
KGYY 270903Z 2709/2806 00000KT 2SM BR BCFG BKN007
      TEMPO 2709/2712 3/4SM BR BCFG
     FM271330 26009KT P6SM SCT100
     FM271600 28011G16KT P6SM BKN045
     FM271800 29015G26KT P6SM VCSH BKN040 PROB30 2718/2722 5SM -SHRA
     FM280200 32012G18KT P6SM BKN035=



000
FTUS43 KLOT 270900 AAA
TAFGYY
TAF AMD
KGYY 270903Z 2709/2806 00000KT 2SM BR BCFG BKN007
      TEMPO 2709/2712 3/4SM BR BCFG
     FM271330 26009KT P6SM SCT100
     FM271600 28011G16KT P6SM BKN045
     FM271800 29015G26KT P6SM VCSH BKN040 PROB30 2718/2722 5SM -SHRA
     FM280200 32012G18KT P6SM BKN035=



000
FTUS43 KLOT 270900 AAA
TAFMDW
TAF AMD
KMDW 270903Z 2709/2806 25003KT 4SM BR FEW005 FEW150
     FM271000 28010KT 3SM BR BCFG SCT005
     FM271300 28010KT P6SM SCT100
     FM271600 29011G16KT P6SM BKN045
     FM271800 30015G26KT P6SM VCSH BKN040 PROB30 2718/2722 5SM -SHRA
     FM280100 32012KT P6SM BKN035=



000
FTUS43 KLOT 270900 AAA
TAFORD
TAF AMD
KORD 270903Z 2709/2812 25003KT 4SM BR FEW007 FEW120
     FM271300 28010KT P6SM SCT100
     FM271600 29011G16KT P6SM BKN045
     FM271800 30015G26KT P6SM VCSH BKN040 PROB30 2718/2722 5SM -SHRA
     FM280100 32012KT P6SM BKN035=



000
FTUS43 KLOT 270900 AAA
TAFDPA
TAF AMD
KDPA 270903Z 2709/2806 25003KT 1 1/2SM BR BCFG SCT007
     FM271300 28010KT P6SM SCT100
     FM271600 29011G16KT P6SM BKN045
     FM271800 30015G26KT P6SM VCSH BKN040 PROB30 2718/2722 5SM -SHRA
     FM280100 32012KT P6SM BKN035=



000
FTUS43 KLOT 270900 AAA
TAFRFD
TAF AMD
KRFD 270903Z 2709/2806 26003KT 2SM BR BCFG FEW007
     FM271300 29009KT P6SM SCT070
     FM271500 30012G19KT P6SM SCT040
     FM271700 31018G28KT P6SM BKN040
     FM280100 33011KT P6SM BKN040=



000
FTUS43 KLOT 270500
TAFDPA
TAF
KDPA 270527Z 2706/2806 23003KT 4SM BR SCT150
     FM270900 25003KT 2SM BR BCFG SCT007
     FM271300 28010KT P6SM SCT100
     FM271600 29011G16KT P6SM BKN045
     FM271800 30015G26KT P6SM VCSH BKN040 PROB30 2718/2722 5SM -SHRA
     FM280100 32012KT P6SM BKN035=



000
FTUS43 KLOT 270500
TAFMDW
TAF
KMDW 270527Z 2706/2806 23003KT 6SM BR BKN150
     FM270730 25003KT 4SM BR FEW007 SCT150
     FM271300 28010KT P6SM SCT100
     FM271600 29011G16KT P6SM BKN045
     FM271800 30015G26KT P6SM VCSH BKN040 PROB30 2718/2722 5SM -SHRA
     FM280100 32012KT P6SM BKN035=



000
FTUS43 KLOT 270500
TAFORD
TAF
KORD 270527Z 2706/2812 23003KT 6SM BR BKN150
     FM270900 25003KT 4SM BR FEW007 FEW150
     FM271300 28010KT P6SM SCT100
     FM271600 29011G16KT P6SM BKN045
     FM271800 30015G26KT P6SM VCSH BKN040 PROB30 2718/2722 5SM -SHRA
     FM280100 32012KT P6SM BKN035=



000
FTUS43 KLOT 270500
TAFGYY
TAF
KGYY 270527Z 2706/2806 00000KT 3SM BR SCT015 SCT150
     FM270800 00000KT 2SM BR BCFG SCT015
      TEMPO 2709/2712 3/4SM BR BCFG
     FM271330 26009KT P6SM SCT100
     FM271600 28011G16KT P6SM BKN045
     FM271800 29015G26KT P6SM VCSH BKN040 PROB30 2718/2722 5SM -SHRA
     FM280200 32012G18KT P6SM BKN035=



000
FTUS43 KLOT 270500
TAFRFD
TAF
KRFD 270527Z 2706/2806 00000KT 5SM BR BKN150
     FM270900 27003KT 2SM BR BCFG FEW007
     FM271300 29009KT P6SM SCT070
     FM271500 30012G19KT P6SM SCT040
     FM271700 31018G28KT P6SM BKN040 PROB30 2717/2720 -SHRA
     FM280100 33011KT P6SM BKN040=



000
FTUS43 KLOT 270500
TAFGYY
TAF
KGYY 270527Z 2706/2806 00000KT 3SM BR SCT015 SCT150
     FM270800 00000KT 2SM BR BCFG SCT015
      TEMPO 2709/2712 3/4SM BR BCFG
     FM271330 26009KT P6SM SCT100
     FM271600 28011G16KT P6SM BKN045
     FM271800 29015G26KT P6SM VCSH BKN040 PROB30 2718/2722 5SM -SHRA
     FM280200 32012G18KT P6SM BKN035=



000
FTUS43 KLOT 270300 AAA
TAFORD
TAF AMD
KORD 270312Z 2703/2806 VRB04KT P6SM BKN150
     FM270700 00000KT 4SM BR SCT150
     FM271330 28010KT P6SM SCT150
     FM271700 28012G20KT P6SM BKN045
     FM271900 30017G26KT P6SM BKN045
     FM280100 32010KT P6SM BKN040=



000
FTUS43 KLOT 270300 AAA
TAFMDW
TAF AMD
KMDW 270312Z 2703/2724 25005KT P6SM BKN150
     FM270600 00000KT 4SM BR SCT150
     FM271330 28010KT P6SM SCT150
     FM271700 28012G20KT P6SM BKN045
     FM271900 30017G26KT P6SM BKN045=



000
FTUS43 KLOT 270300 AAA
TAFDPA
TAF AMD
KDPA 270312Z 2703/2724 25005KT P6SM BKN150
     FM270400 00000KT 4SM BR SCT150
     FM270900 00000KT 2SM BR BCFG SCT015
     FM271400 28010KT P6SM SCT150
     FM271800 30017G26KT P6SM BKN045=



000
FTUS43 KLOT 270300 AAA
TAFGYY
TAF AMD
KGYY 270312Z 2703/2724 00000KT 5SM BR BKN150
     FM270700 00000KT 2SM BR BCFG OVC015
      TEMPO 2709/2712 3/4SM BR BCFG
     FM271400 27010KT P6SM SCT150
     FM271700 28012G20KT P6SM BKN045
     FM271900 31015G25KT P6SM BKN045=



000
FTUS43 KLOT 270300 AAA
TAFGYY
TAF AMD
KGYY 270312Z 2703/2724 00000KT 5SM BR BKN150
     FM270700 00000KT 2SM BR BCFG OVC015
      TEMPO 2709/2712 3/4SM BR BCFG
     FM271400 27010KT P6SM SCT150
     FM271700 28012G20KT P6SM BKN045
     FM271900 31015G25KT P6SM BKN045=



000
FTUS43 KLOT 270300 AAA
TAFRFD
TAF AMD
KRFD 270312Z 2703/2724 25005KT P6SM BKN150
     FM270600 00000KT 4SM BR SCT150
     FM270900 00000KT 2SM BR BCFG SKC
     FM271400 30012G18KT P6SM SCT150
     FM271700 31018G28KT P6SM BKN045=



000
FTUS43 KLOT 262300
TAFGYY
TAF
KGYY 262337Z 2700/2724 25005KT P6SM SCT025 BKN150
     FM270430 00000KT 5SM BR FEW150
      TEMPO 2709/2712 2SM BR BCFG
     FM271400 27010KT P6SM SCT150
     FM271700 28012G20KT P6SM BKN045
     FM271900 31015G25KT P6SM BKN045=



000
FTUS43 KLOT 262300
TAFMDW
TAF
KMDW 262337Z 2700/2724 25005KT P6SM SCT025 BKN150
     FM270600 00000KT 4SM BR FEW150
     FM271330 28010KT P6SM SCT150
     FM271700 28012G20KT P6SM BKN045
     FM271900 30017G26KT P6SM BKN045=



000
FTUS43 KLOT 262300
TAFDPA
TAF
KDPA 262337Z 2700/2724 25005KT P6SM SCT025 BKN150
     FM270400 00000KT 4SM BR FEW150
     FM270900 00000KT 2SM BR BCFG SKC
     FM271400 28010KT P6SM SCT150
     FM271800 30017G26KT P6SM BKN045=



000
FTUS43 KLOT 262300
TAFRFD
TAF
KRFD 262337Z 2700/2724 25005KT P6SM SCT025 BKN150
     FM270400 00000KT 4SM BR FEW150
     FM270900 00000KT 2SM BR BCFG SKC
     FM271400 30012G18KT P6SM SCT150
     FM271700 31018G28KT P6SM BKN045=



000
FTUS43 KLOT 262300
TAFORD
TAF
KORD 262337Z 2700/2806 25005KT P6SM SCT025 BKN150
     FM270600 00000KT 4SM BR FEW150
     FM271330 28010KT P6SM SCT150
     FM271700 28012G20KT P6SM BKN045
     FM271900 30017G26KT P6SM BKN045
     FM280100 32010KT P6SM BKN040=



000
FTUS43 KLOT 262300
TAFGYY
TAF
KGYY 262337Z 2700/2724 25005KT P6SM SCT025 BKN150
     FM270430 00000KT 5SM BR FEW150
      TEMPO 2709/2712 2SM BR BCFG
     FM271400 27010KT P6SM SCT150
     FM271700 28012G20KT P6SM BKN045
     FM271900 31015G25KT P6SM BKN045=



000
FTUS43 KLOT 262200 AAB
TAFDPA
TAF AMD
KDPA 262209Z 2622/2718 28006KT P6SM FEW025 BKN150
     FM270100 VRB04KT P6SM BKN100
     FM270500 VRB02KT 3SM BR FEW010 BKN100
     FM271300 28009KT P6SM SCT150
     FM271600 29013G21KT P6SM BKN045=



000
FTUS43 KLOT 262200 AAC
TAFORD
TAF AMD
KORD 262209Z 2622/2724 VRB05KT P6SM FEW025 BKN150
     FM270500 VRB02KT 4SM BR FEW015 BKN100
     FM271300 28009KT P6SM SCT150
     FM271600 29013G21KT P6SM BKN045
     FM271900 29017G26KT P6SM BKN045=



000
FTUS43 KLOT 262200 AAB
TAFMDW
TAF AMD
KMDW 262209Z 2622/2718 23007KT P6SM SCT025 BKN130
     FM270100 VRB04KT P6SM BKN150
     FM270500 VRB02KT 4SM BR FEW015 BKN100
     FM271300 28009KT P6SM SCT150
     FM271600 29013G21KT P6SM BKN045=



000
FTUS43 KLOT 262200 AAB
TAFGYY
TAF AMD
KGYY 262209Z 2622/2718 VRB05KT P6SM SCT025 BKN150
     FM270500 24004KT 3SM BR FEW010 BKN100
     FM271300 28009KT P6SM SCT150
     FM271600 29013G21KT P6SM BKN045=



000
FTUS43 KLOT 262200 AAB
TAFGYY
TAF AMD
KGYY 262209Z 2622/2718 VRB05KT P6SM SCT025 BKN150
     FM270500 24004KT 3SM BR FEW010 BKN100
     FM271300 28009KT P6SM SCT150
     FM271600 29013G21KT P6SM BKN045=



000
FTUS43 KLOT 262200 AAB
TAFRFD
TAF AMD
KRFD 262209Z 2622/2718 27007KT P6SM FEW025 BKN150
     FM270100 VRB03KT P6SM BKN130
     FM270600 VRB02KT 4SM BR FEW010 BKN100
     FM271400 30014G23KT P6SM BKN040=



000
FTUS43 KLOT 262000 AAB
TAFORD
TAF AMD
KORD 262025Z 2620/2724 23006KT P6SM SCT030 OVC200
     FM262050 06008KT P6SM SCT030 OVC200
     FM270100 VRB04KT P6SM BKN150
     FM270500 VRB02KT 4SM BR FEW015 BKN100
     FM271300 28009KT P6SM SCT150
     FM271600 29013G21KT P6SM BKN045
     FM271900 29017G26KT P6SM BKN045=



000
FTUS43 KLOT 261900 AAA
TAFGYY
TAF AMD
KGYY 261952Z 2620/2718 20006KT P6SM SCT030 BKN130
     FM270100 VRB05KT P6SM BKN150
     FM270500 24004KT 3SM BR FEW010 BKN100
     FM271300 28009KT P6SM SCT150
     FM271600 29013G21KT P6SM BKN045=



000
FTUS43 KLOT 261900 AAA
TAFDPA
TAF AMD
KDPA 261952Z 2620/2718 19007KT P6SM SCT030 BKN130
     FM270100 VRB04KT P6SM BKN100
     FM270500 VRB02KT 3SM BR FEW010 BKN100
     FM271300 28009KT P6SM SCT150
     FM271600 29013G21KT P6SM BKN045=



000
FTUS43 KLOT 261900 AAA
TAFRFD
TAF AMD
KRFD 261952Z 2620/2718 VRB06KT P6SM FEW025 BKN130
     FM270100 VRB03KT P6SM BKN130
     FM270600 VRB02KT 4SM BR FEW010 BKN100
     FM271400 30014G23KT P6SM BKN040=



000
FTUS43 KLOT 261900 AAA
TAFORD
TAF AMD
KORD 261952Z 2620/2724 23006KT P6SM SCT030 BKN130
     FM270100 VRB04KT P6SM BKN150
     FM270500 VRB02KT 4SM BR FEW015 BKN100
     FM271300 28009KT P6SM SCT150
     FM271600 29013G21KT P6SM BKN045
     FM271900 29017G26KT P6SM BKN045=



000
FTUS43 KLOT 261900 AAA
TAFMDW
TAF AMD
KMDW 261952Z 2620/2718 23006KT P6SM SCT030 BKN130
     FM270100 VRB04KT P6SM BKN150
     FM270500 VRB02KT 4SM BR FEW015 BKN100
     FM271300 28009KT P6SM SCT150
     FM271600 29013G21KT P6SM BKN045=



000
FTUS43 KLOT 261900 AAA
TAFGYY
TAF AMD
KGYY 261952Z 2620/2718 20006KT P6SM SCT030 BKN130
     FM270100 VRB05KT P6SM BKN150
     FM270500 24004KT 3SM BR FEW010 BKN100
     FM271300 28009KT P6SM SCT150
     FM271600 29013G21KT P6SM BKN045=



000
FTUS43 KLOT 261700
TAFRFD
TAF
KRFD 261738Z 2618/2718 35006KT P6SM VCSH SCT025 BKN060
     FM262200 35005KT P6SM SCT030 BKN120
     FM270100 VRB03KT P6SM BKN100
     FM270600 VRB02KT 4SM BR FEW010 BKN100
     FM271400 30014G23KT P6SM BKN040=



000
FTUS43 KLOT 261700
TAFGYY
TAF
KGYY 261738Z 2618/2718 22008KT P6SM SCT025 BKN035
     FM262100 23006KT P6SM VCSH SCT030 BKN120
     FM270100 VRB05KT P6SM BKN120
     FM270500 24004KT 3SM BR FEW010 BKN100
     FM271300 28009KT P6SM SCT150
     FM271600 29013G21KT P6SM BKN045=



000
FTUS43 KLOT 261700
TAFDPA
TAF
KDPA 261738Z 2618/2718 26007KT P6SM SCT025 BKN035
     FM262000 23006KT P6SM VCSH SCT030 BKN120
     FM270100 VRB04KT P6SM BKN100
     FM270500 VRB02KT 3SM BR FEW010 BKN100
     FM271300 28009KT P6SM SCT150
     FM271600 29013G21KT P6SM BKN045=



000
FTUS43 KLOT 261700
TAFORD
TAF
KORD 261738Z 2618/2724 26007KT P6SM SCT025 BKN035
     FM262000 23006KT P6SM VCSH SCT030 BKN120
     FM270100 VRB04KT P6SM BKN100
     FM270500 VRB02KT 4SM BR FEW015 BKN100
     FM271300 28009KT P6SM SCT150
     FM271600 29013G21KT P6SM BKN045
     FM271900 29017G26KT P6SM BKN045=



000
FTUS43 KLOT 261700
TAFMDW
TAF
KMDW 261738Z 2618/2718 25006KT P6SM SCT025 BKN035
     FM262000 23006KT P6SM VCSH SCT030 BKN120
     FM270100 VRB04KT P6SM BKN100
     FM270500 VRB02KT 4SM BR FEW015 BKN100
     FM271300 28009KT P6SM SCT150
     FM271600 29013G21KT P6SM BKN045=



000
FTUS43 KLOT 261700
TAFGYY
TAF
KGYY 261738Z 2618/2718 22008KT P6SM SCT025 BKN035
     FM262100 23006KT P6SM VCSH SCT030 BKN120
     FM270100 VRB05KT P6SM BKN120
     FM270500 24004KT 3SM BR FEW010 BKN100
     FM271300 28009KT P6SM SCT150
     FM271600 29013G21KT P6SM BKN045=



000
FTUS43 KLOT 261600 AAB
TAFGYY
TAF AMD
KGYY 261607Z 2616/2712 21008KT P6SM FEW020 BKN035
      TEMPO 2616/2619 BKN025
     FM261900 25007KT P6SM SCT030 BKN120
     FM262100 07010KT P6SM BKN120
     FM270100 VRB06KT 6SM BR BKN080 PROB30 2701/2704 TSRA BKN040CB
     FM270500 24004KT 3SM BR FEW010 BKN100=



000
FTUS43 KLOT 261600 AAB
TAFRFD
TAF AMD
KRFD 261607Z 2616/2712 32008KT P6SM SCT020 BKN060
     FM261800 26008KT P6SM SCT030 BKN100
     FM270100 VRB03KT 6SM BR BKN100
     FM270600 VRB02KT 4SM BR FEW010 BKN100=



000
FTUS43 KLOT 261600 AAB
TAFDPA
TAF AMD
KDPA 261607Z 2616/2712 23007KT P6SM BKN020
     FM261800 26008KT P6SM SCT030 BKN100
     FM270000 21004KT P6SM BKN100
     FM270500 24004KT 3SM BR FEW010 BKN100=



000
FTUS43 KLOT 261600 AAB
TAFMDW
TAF AMD
KMDW 261607Z 2616/2712 24007KT P6SM SCT020 BKN060
      TEMPO 2616/2618 BKN025
     FM261800 25006KT P6SM SCT030 BKN100
     FM262200 11008KT P6SM BKN100
     FM270500 24004KT 4SM BR FEW015 BKN100=



000
FTUS43 KLOT 261600 AAB
TAFGYY
TAF AMD
KGYY 261607Z 2616/2712 21008KT P6SM FEW020 BKN035
      TEMPO 2616/2619 BKN025
     FM261900 25007KT P6SM SCT030 BKN120
     FM262100 07010KT P6SM BKN120
     FM270100 VRB06KT 6SM BR BKN080 PROB30 2701/2704 TSRA BKN040CB
     FM270500 24004KT 3SM BR FEW010 BKN100=



000
FTUS43 KLOT 261600 AAB
TAFORD
TAF AMD
KORD 261607Z 2616/2718 24007KT P6SM SCT020 BKN060
      TEMPO 2616/2618 BKN025
     FM261800 25007KT P6SM SCT030 BKN100
     FM270000 11006KT P6SM BKN100
     FM270500 24004KT 4SM BR FEW015 BKN100
     FM271300 27010KT P6SM SCT150
     FM271700 29013G21KT P6SM BKN045=



000
FTUS43 KLOT 261300 AAA
TAFORD
TAF AMD
KORD 261400Z 2614/2718 21007KT P6SM OVC035
     FM261800 25007KT P6SM SCT040 BKN100
     FM270000 11006KT P6SM BKN100
     FM270500 24004KT 4SM BR FEW015 BKN100
     FM271300 27010KT P6SM SCT150
     FM271700 29013G21KT P6SM BKN045=



000
FTUS43 KLOT 261300 AAA
TAFGYY
TAF AMD
KGYY 261400Z 2614/2712 20008KT P6SM BKN035
     FM261900 25007KT P6SM SCT035 BKN120
     FM262100 07010KT P6SM BKN120
     FM270100 VRB06KT 6SM BR BKN080 PROB30 2701/2704 TSRA BKN040CB
     FM270500 24004KT 3SM BR FEW010 BKN100=



000
FTUS43 KLOT 261300 AAA
TAFDPA
TAF AMD
KDPA 261400Z 2614/2712 21007KT P6SM OVC035
     FM261800 26008KT P6SM SCT040 BKN100
     FM270000 21004KT P6SM BKN100
     FM270500 24004KT 3SM BR FEW010 BKN100=



000
FTUS43 KLOT 261300 AAA
TAFGYY
TAF AMD
KGYY 261400Z 2614/2712 20008KT P6SM BKN035
     FM261900 25007KT P6SM SCT035 BKN120
     FM262100 07010KT P6SM BKN120
     FM270100 VRB06KT 6SM BR BKN080 PROB30 2701/2704 TSRA BKN040CB
     FM270500 24004KT 3SM BR FEW010 BKN100=



000
FTUS43 KLOT 261300 AAA
TAFMDW
TAF AMD
KMDW 261400Z 2614/2712 21007KT P6SM OVC035
     FM261800 25006KT P6SM SCT040 BKN100
     FM262200 11008KT P6SM BKN100
     FM270500 24004KT 4SM BR FEW015 BKN100=



000
FTUS43 KLOT 261300 AAA
TAFRFD
TAF AMD
KRFD 261400Z 2614/2712 20007KT P6SM OVC035
      TEMPO 2614/2616 OVC029
     FM261800 26008KT P6SM SCT040 BKN100
     FM270100 VRB03KT 6SM BR BKN100
     FM270600 VRB02KT 4SM BR FEW010 BKN100=



000
FTUS43 KLOT 261100
TAFGYY
TAF
KGYY 261128Z 2612/2712 19007KT P6SM VCSH OVC035
     FM261400 20008KT P6SM BKN035
     FM261900 25007KT P6SM SCT035 BKN120
     FM262100 07010KT P6SM BKN120
     FM270100 VRB06KT 6SM BR BKN080 PROB30 2701/2704 TSRA BKN040CB
     FM270500 24004KT 3SM BR FEW010 BKN100=



000
FTUS43 KLOT 261100
TAFRFD
TAF
KRFD 261128Z 2612/2712 20007KT P6SM OVC035
      TEMPO 2612/2615 OVC025
     FM261800 26008KT P6SM SCT040 BKN100
     FM270100 VRB03KT 6SM BR BKN100
     FM270600 VRB02KT 4SM BR FEW010 BKN100=



000
FTUS43 KLOT 261100
TAFGYY
TAF
KGYY 261128Z 2612/2712 19007KT P6SM VCSH OVC035
     FM261400 20008KT P6SM BKN035
     FM261900 25007KT P6SM SCT035 BKN120
     FM262100 07010KT P6SM BKN120
     FM270100 VRB06KT 6SM BR BKN080 PROB30 2701/2704 TSRA BKN040CB
     FM270500 24004KT 3SM BR FEW010 BKN100=



000
FTUS43 KLOT 261100
TAFMDW
TAF
KMDW 261128Z 2612/2712 20007KT P6SM VCSH OVC035
     FM261300 21007KT P6SM OVC035
     FM261800 25006KT P6SM SCT040 BKN100
     FM262200 11008KT P6SM BKN100
     FM270500 24004KT 4SM BR FEW015 BKN100=



000
FTUS43 KLOT 261100
TAFORD
TAF
KORD 261128Z 2612/2718 20007KT P6SM VCSH OVC035
     FM261300 21007KT P6SM OVC035
     FM261800 25007KT P6SM SCT040 BKN100
     FM270000 11006KT P6SM BKN100
     FM270500 24004KT 4SM BR FEW015 BKN100
     FM271300 27010KT P6SM SCT150
     FM271700 29013G21KT P6SM BKN045=



000
FTUS43 KLOT 261100
TAFDPA
TAF
KDPA 261128Z 2612/2712 20007KT P6SM VCSH OVC035
     FM261230 21007KT P6SM OVC035
     FM261800 26008KT P6SM SCT040 BKN100
     FM270000 21004KT P6SM BKN100
     FM270500 24004KT 3SM BR FEW010 BKN100=



000
FTUS43 KLOT 261000 AAB
TAFORD
TAF AMD
KORD 261046Z 2611/2712 19006KT P6SM VCSH OVC035
     FM261230 19007KT P6SM OVC035
     FM261600 20007KT P6SM BKN035
     FM261800 25007KT P6SM SCT035 BKN120
     FM270000 11006KT P6SM BKN120
     FM270400 24004KT 6SM BR BKN100=



000
FTUS43 KLOT 260800 AAA
TAFGYY
TAF AMD
KGYY 260838Z 2609/2706 19006KT P6SM BKN035
     FM261100 19007KT P6SM VCSH BKN035
     FM261500 20007KT P6SM BKN035
     FM261800 25007KT P6SM SCT035 BKN120
     FM262000 07010KT P6SM BKN120
     FM270100 VRB04KT 6SM BR BKN080 PROB30 2701/2704 TSRA BKN040CB=



000
FTUS43 KLOT 260800 AAA
TAFMDW
TAF AMD
KMDW 260838Z 2609/2706 19007KT P6SM VCSH OVC035
      TEMPO 2611/2613 OVC025
     FM261300 19007KT P6SM OVC035
     FM261600 20007KT P6SM BKN035
     FM261800 25007KT P6SM SCT035 BKN120
     FM262200 10006KT P6SM BKN120
     FM270400 24004KT 6SM BR BKN100=



000
FTUS43 KLOT 260800 AAA
TAFRFD
TAF AMD
KRFD 260838Z 2609/2706 17007KT P6SM VCSH OVC035
     FM261100 17007KT P6SM OVC025
     FM261500 22007KT P6SM BKN035
     FM261800 26008KT P6SM SCT035 BKN100
     FM270100 VRB03KT 6SM BR BKN120=



000
FTUS43 KLOT 260800 AAA
TAFORD
TAF AMD
KORD 260838Z 2609/2712 19007KT P6SM OVC035
      TEMPO 2610/2613 OVC025
     FM261600 20007KT P6SM BKN035
     FM261800 25007KT P6SM SCT035 BKN120
     FM270000 11006KT P6SM BKN120
     FM270400 24004KT 6SM BR BKN100=



000
FTUS43 KLOT 260800 AAA
TAFDPA
TAF AMD
KDPA 260838Z 2609/2706 18007KT P6SM VCSH OVC035
     FM261200 19007KT P6SM OVC025
     FM261500 20007KT P6SM BKN035
     FM261800 25007KT P6SM SCT035 BKN120
     FM270000 11006KT P6SM BKN120
     FM270400 24004KT 6SM BR BKN100=



000
FTUS43 KLOT 260800 AAA
TAFGYY
TAF AMD
KGYY 260838Z 2609/2706 19006KT P6SM BKN035
     FM261100 19007KT P6SM VCSH BKN035
     FM261500 20007KT P6SM BKN035
     FM261800 25007KT P6SM SCT035 BKN120
     FM262000 07010KT P6SM BKN120
     FM270100 VRB04KT 6SM BR BKN080 PROB30 2701/2704 TSRA BKN040CB=



000
FTUS43 KLOT 260500
TAFGYY
TAF
KGYY 260531Z 2606/2706 20005KT P6SM OVC035
     FM260800 19007KT P6SM VCSH OVC025
     FM261200 19007KT P6SM OVC025
     FM261600 20007KT P6SM BKN035
     FM261800 25007KT P6SM SCT035 BKN120
     FM262000 07010KT P6SM BKN120
     FM270100 VRB04KT 6SM BR BKN080 PROB30 2701/2704 TSRA BKN040CB=



000
FTUS43 KLOT 260500
TAFMDW
TAF
KMDW 260531Z 2606/2706 20007KT P6SM OVC035
     FM260730 19007KT P6SM VCSH OVC025
     FM261100 19007KT P6SM OVC025
     FM261600 20007KT P6SM BKN035
     FM261800 25007KT P6SM SCT035 BKN120
     FM262200 10006KT P6SM BKN120
     FM270400 24004KT 6SM BR BKN100=



000
FTUS43 KLOT 260500
TAFORD
TAF
KORD 260531Z 2606/2712 20007KT P6SM OVC035
     FM260730 19007KT P6SM VCSH OVC025
     FM261100 19007KT P6SM OVC025
     FM261600 20007KT P6SM BKN035
     FM261800 25007KT P6SM SCT035 BKN120
     FM270000 11006KT P6SM BKN120
     FM270400 24004KT 6SM BR BKN100=



000
FTUS43 KLOT 260500
TAFDPA
TAF
KDPA 260531Z 2606/2706 20007KT P6SM OVC035
     FM260700 19007KT P6SM VCSH OVC025
     FM261100 19007KT P6SM OVC022
     FM261600 20007KT P6SM BKN035
     FM261800 25007KT P6SM SCT035 BKN120
     FM270000 11006KT P6SM BKN120
     FM270400 24004KT 6SM BR BKN100=



000
FTUS43 KLOT 260500
TAFRFD
TAF
KRFD 260531Z 2606/2706 17007KT P6SM OVC025
      TEMPO 2610/2613 OVC015
     FM261500 22007KT P6SM BKN035
     FM261800 26008KT P6SM SCT035 BKN100
     FM270100 VRB03KT 6SM BR BKN120=



000
FTUS43 KLOT 260500
TAFGYY
TAF
KGYY 260531Z 2606/2706 20005KT P6SM OVC035
     FM260800 19007KT P6SM VCSH OVC025
     FM261200 19007KT P6SM OVC025
     FM261600 20007KT P6SM BKN035
     FM261800 25007KT P6SM SCT035 BKN120
     FM262000 07010KT P6SM BKN120
     FM270100 VRB04KT 6SM BR BKN080 PROB30 2701/2704 TSRA BKN040CB=



000
FTUS43 KLOT 260200 AAB
TAFORD
TAF AMD
KORD 260255Z 2603/2706 21008KT P6SM OVC035
     FM260700 20006KT P6SM VCSH OVC025
     FM261300 23007KT P6SM BKN030
     FM261800 25006KT P6SM SCT030 BKN150
     FM270000 27004KT P6SM BKN150=



000
FTUS43 KLOT 260200 AAB
TAFRFD
TAF AMD
KRFD 260255Z 2603/2624 18007KT P6SM OVC025
     FM261400 23006KT P6SM BKN030
     FM261800 26006KT P6SM SCT030 BKN150=



000
FTUS43 KLOT 260200 AAB
TAFDPA
TAF AMD
KDPA 260255Z 2603/2624 18007KT P6SM OVC035
     FM260600 18005KT P6SM VCSH OVC025
     FM261300 23007KT P6SM BKN030
     FM261800 25006KT P6SM SCT030 BKN150=



000
FTUS43 KLOT 260200 AAB
TAFGYY
TAF AMD
KGYY 260255Z 2603/2624 18008KT P6SM OVC035
     FM260800 18004KT P6SM OVC025
      TEMPO 2609/2613 4SM TSRA OVC040CB
     FM261300 23007KT P6SM BKN030
     FM261800 25006KT P6SM SCT030 BKN150=



000
FTUS43 KLOT 260200 AAB
TAFGYY
TAF AMD
KGYY 260255Z 2603/2624 18008KT P6SM OVC035
     FM260800 18004KT P6SM OVC025
      TEMPO 2609/2613 4SM TSRA OVC040CB
     FM261300 23007KT P6SM BKN030
     FM261800 25006KT P6SM SCT030 BKN150=



000
FTUS43 KLOT 260200 AAB
TAFMDW
TAF AMD
KMDW 260255Z 2603/2624 21008KT P6SM OVC035
     FM260700 20006KT P6SM VCSH OVC025
     FM261300 23007KT P6SM BKN030
     FM261800 25006KT P6SM SCT030 BKN150=



000
FTUS43 KLOT 260100 AAA
TAFGYY
TAF AMD
KGYY 260112Z 2601/2624 18008KT P6SM OVC035
     FM260700 18004KT P6SM OVC025
      TEMPO 2609/2613 4SM TSRA OVC040CB
     FM261300 23007KT P6SM BKN030
     FM261800 25006KT P6SM SCT030 BKN150=



000
FTUS43 KLOT 260100 AAA
TAFORD
TAF AMD
KORD 260112Z 2601/2706 21008KT P6SM OVC035
     FM260500 19005KT P6SM OVC025 PROB30 2610/2613 4SM -SHRA OVC025
     FM261300 23007KT P6SM BKN030
     FM261800 25006KT P6SM SCT030 BKN150
     FM270000 27004KT P6SM BKN150=



000
FTUS43 KLOT 260100 AAA
TAFGYY
TAF AMD
KGYY 260112Z 2601/2624 18008KT P6SM OVC035
     FM260700 18004KT P6SM OVC025
      TEMPO 2609/2613 4SM TSRA OVC040CB
     FM261300 23007KT P6SM BKN030
     FM261800 25006KT P6SM SCT030 BKN150=



000
FTUS43 KLOT 260100 AAA
TAFDPA
TAF AMD
KDPA 260112Z 2601/2624 18007KT P6SM OVC035
     FM260500 18005KT P6SM OVC025 PROB30 2610/2613 4SM -SHRA OVC025
     FM261400 23007KT P6SM BKN030
     FM261800 25006KT P6SM SCT030 BKN150=



000
FTUS43 KLOT 260100 AAA
TAFMDW
TAF AMD
KMDW 260112Z 2601/2624 21008KT P6SM OVC035
     FM260500 19005KT P6SM OVC025 PROB30 2610/2613 4SM -SHRA OVC025
     FM261300 23007KT P6SM BKN030
     FM261800 25006KT P6SM SCT030 BKN150=



000
FTUS43 KLOT 260100 AAA
TAFRFD
TAF AMD
KRFD 260112Z 2601/2624 16010KT P6SM OVC035
     FM260500 17004KT P6SM OVC025
     FM261400 23006KT P6SM BKN030
     FM261800 26006KT P6SM SCT030 BKN150=



    US Dept of Commerce
    National Oceanic and Atmospheric Administration
    National Weather Service
    1325 East West Highway
    Silver Spring, MD 20910
    Page Author: NWS Internet Services Team
Disclaimer
Information Quality
Credits
Glossary
Privacy Policy
Freedom of Information Act (FOIA)
About Us
Career Opportunities